createdAt,value
2023-05-22T00:01:56.711Z,51.00
2023-05-22T00:04:23.878Z,51.10
2023-05-22T00:06:50.825Z,51.10
2023-05-22T00:09:18.081Z,51.20
2023-05-22T00:11:45.050Z,51.20
2023-05-22T00:14:13.566Z,51.20
2023-05-22T00:16:41.118Z,51.20
2023-05-22T00:19:13.297Z,51.40
2023-05-22T00:21:40.462Z,51.40
2023-05-22T00:24:07.525Z,51.50
2023-05-22T00:26:34.322Z,51.60
2023-05-22T00:29:01.340Z,51.60
2023-05-22T00:31:29.102Z,51.80
2023-05-22T00:33:56.400Z,51.80
2023-05-22T00:36:23.702Z,51.90
2023-05-22T00:38:50.891Z,52.10
2023-05-22T00:41:17.939Z,52.10
2023-05-22T00:43:46.340Z,52.20
2023-05-22T00:46:14.528Z,52.10
2023-05-22T00:48:41.554Z,52.30
2023-05-22T00:51:08.944Z,52.40
2023-05-22T00:53:37.126Z,52.40
2023-05-22T00:56:04.995Z,52.40
2023-05-22T00:58:31.862Z,52.50
2023-05-22T01:00:59.033Z,52.50
2023-05-22T01:03:26.865Z,52.70
2023-05-22T01:05:54.982Z,52.60
2023-05-22T01:08:22.187Z,52.60
2023-05-22T01:10:54.632Z,52.60
2023-05-22T01:13:30.615Z,52.70
2023-05-22T01:16:01.911Z,52.70
2023-05-22T01:18:43.779Z,52.80
2023-05-22T01:21:32.915Z,52.90
2023-05-22T01:24:11.708Z,53.30
2023-05-22T01:27:14.796Z,53.20
2023-05-22T01:29:48.298Z,53.30
2023-05-22T01:32:21.610Z,53.10
2023-05-22T01:34:53.334Z,53.20
2023-05-22T01:37:22.607Z,53.60
2023-05-22T01:39:51.843Z,53.40
2023-05-22T01:42:19.314Z,53.60
2023-05-22T01:44:47.897Z,53.60
2023-05-22T01:47:15.825Z,53.60
2023-05-22T01:49:43.047Z,53.70
2023-05-22T01:52:31.211Z,53.80
2023-05-22T01:55:05.480Z,54.10
2023-05-22T01:58:10.922Z,53.80
2023-05-22T02:00:41.553Z,53.90
2023-05-22T02:03:19.937Z,53.80
2023-05-22T02:05:54.144Z,53.90
2023-05-22T02:08:22.655Z,53.90
2023-05-22T02:10:51.192Z,53.90
2023-05-22T02:13:21.633Z,54.10
2023-05-22T02:15:49.160Z,54.20
2023-05-22T02:18:16.413Z,54.40
2023-05-22T02:20:45.662Z,54.40
2023-05-22T02:23:12.543Z,54.40
2023-05-22T02:25:39.372Z,54.40
2023-05-22T02:28:06.198Z,54.60
2023-05-22T02:30:33.258Z,54.60
2023-05-22T02:33:00.311Z,54.60
2023-05-22T02:35:27.319Z,54.60
2023-05-22T02:37:54.356Z,54.70
2023-05-22T02:40:21.302Z,54.70
2023-05-22T02:42:48.196Z,54.80
2023-05-22T02:45:16.906Z,54.80
2023-05-22T02:47:43.788Z,54.90
2023-05-22T02:50:12.065Z,54.90
2023-05-22T02:52:40.749Z,54.90
2023-05-22T02:55:08.603Z,55.00
2023-05-22T02:57:35.704Z,55.10
2023-05-22T03:00:06.976Z,55.20
2023-05-22T03:02:34.828Z,55.20
2023-05-22T03:05:01.837Z,55.20
2023-05-22T03:07:29.776Z,55.30
2023-05-22T03:09:56.979Z,55.30
2023-05-22T03:12:23.836Z,55.30
2023-05-22T03:14:50.771Z,55.30
2023-05-22T03:17:17.727Z,55.40
2023-05-22T03:19:44.557Z,55.50
2023-05-22T03:22:11.467Z,55.60
2023-05-22T03:24:39.162Z,55.60
2023-05-22T03:27:07.595Z,55.60
2023-05-22T03:29:39.185Z,55.70
2023-05-22T03:32:06.506Z,55.70
2023-05-22T03:34:33.386Z,55.70
2023-05-22T03:37:01.168Z,55.80
2023-05-22T03:39:28.140Z,55.90
2023-05-22T03:42:00.091Z,56.00
2023-05-22T03:44:27.741Z,56.00
2023-05-22T03:46:55.067Z,56.10
2023-05-22T03:49:21.905Z,56.20
2023-05-22T03:51:48.737Z,56.20
2023-05-22T03:54:16.205Z,56.00
2023-05-22T03:56:43.555Z,56.40
2023-05-22T03:59:10.364Z,56.60
2023-05-22T04:01:39.439Z,56.50
2023-05-22T04:04:06.409Z,56.50
2023-05-22T04:06:33.336Z,56.50
2023-05-22T04:09:01.028Z,56.50
2023-05-22T04:11:30.471Z,56.50
2023-05-22T04:13:57.397Z,56.70
2023-05-22T04:16:24.353Z,56.80
2023-05-22T04:18:51.231Z,56.80
2023-05-22T04:21:19.083Z,56.80
2023-05-22T04:23:45.959Z,56.90
2023-05-22T04:26:13.220Z,57.00
2023-05-22T04:28:40.437Z,57.10
2023-05-22T04:31:07.297Z,57.20
2023-05-22T04:33:34.804Z,57.20
2023-05-22T04:36:02.756Z,57.90
2023-05-22T04:38:29.715Z,57.40
2023-05-22T04:40:57.126Z,57.30
2023-05-22T04:43:26.765Z,57.30
2023-05-22T04:45:54.913Z,57.30
2023-05-22T04:48:22.563Z,57.30
2023-05-22T04:50:54.259Z,57.30
2023-05-22T04:53:21.263Z,57.50
2023-05-22T04:55:48.106Z,57.50
2023-05-22T04:58:15.333Z,57.50
2023-05-22T05:00:42.309Z,57.60
2023-05-22T05:03:11.754Z,57.70
2023-05-22T05:05:38.867Z,57.70
2023-05-22T05:08:06.423Z,57.80
2023-05-22T05:10:33.546Z,57.80
2023-05-22T05:13:00.370Z,57.80
2023-05-22T05:15:28.131Z,57.90
2023-05-22T05:17:55.393Z,58.00
2023-05-22T05:20:22.413Z,58.10
2023-05-22T05:22:49.259Z,58.10
2023-05-22T05:25:17.536Z,58.10
2023-05-22T05:27:44.418Z,58.20
2023-05-22T05:30:11.778Z,58.40
2023-05-22T05:32:58.892Z,58.50
2023-05-22T05:35:42.098Z,58.50
2023-05-22T05:38:11.188Z,58.50
2023-05-22T05:40:40.412Z,58.60
2023-05-22T05:43:09.331Z,58.70
2023-05-22T05:45:37.180Z,58.80
2023-05-22T05:48:04.958Z,58.90
2023-05-22T05:50:32.887Z,58.90
2023-05-22T05:52:59.820Z,58.90
2023-05-22T05:55:26.629Z,58.90
2023-05-22T05:57:54.927Z,58.90
2023-05-22T06:00:30.150Z,59.00
2023-05-22T06:02:59.434Z,59.00
2023-05-22T06:05:47.448Z,59.00
2023-05-22T06:08:23.824Z,59.00
2023-05-22T06:10:50.837Z,59.00
2023-05-22T06:13:33.104Z,59.10
2023-05-22T06:16:02.815Z,60.40
2023-05-22T06:18:31.825Z,59.10
2023-05-22T06:20:59.125Z,59.20
2023-05-22T06:23:26.374Z,59.20
2023-05-22T06:25:55.500Z,59.20
2023-05-22T06:28:23.435Z,59.30
2023-05-22T06:30:50.572Z,59.40
2023-05-22T06:33:20.224Z,59.40
2023-05-22T06:35:47.235Z,59.40
2023-05-22T06:38:15.199Z,59.40
2023-05-22T06:40:43.423Z,60.50
2023-05-22T06:43:15.755Z,59.70
2023-05-22T06:45:59.590Z,59.80
2023-05-22T06:48:38.900Z,59.70
2023-05-22T06:51:24.990Z,59.80
2023-05-22T06:53:57.589Z,60.00
2023-05-22T06:56:29.688Z,59.80
2023-05-22T06:59:06.110Z,59.60
2023-05-22T07:02:08.150Z,59.50
2023-05-22T07:05:07.649Z,59.20
2023-05-22T07:07:45.428Z,59.20
2023-05-22T07:10:12.503Z,59.20
2023-05-22T07:12:39.374Z,59.30
2023-05-22T07:15:06.932Z,59.30
2023-05-22T07:17:34.818Z,59.30
2023-05-22T07:20:02.150Z,59.40
2023-05-22T07:22:30.088Z,60.20
2023-05-22T07:24:57.874Z,59.60
2023-05-22T07:27:29.458Z,60.30
2023-05-22T07:29:56.295Z,59.70
2023-05-22T07:32:23.286Z,59.70
2023-05-22T07:34:50.444Z,59.70
2023-05-22T07:37:18.450Z,59.80
2023-05-22T07:39:47.639Z,59.70
2023-05-22T07:42:15.279Z,59.70
2023-05-22T07:44:48.757Z,59.80
2023-05-22T07:47:17.409Z,59.90
2023-05-22T07:49:44.365Z,60.00
2023-05-22T07:52:11.479Z,60.10
2023-05-22T07:54:39.091Z,60.30
2023-05-22T07:57:08.122Z,60.50
2023-05-22T07:59:38.602Z,60.50
2023-05-22T08:02:05.766Z,60.40
2023-05-22T08:04:32.697Z,60.30
2023-05-22T08:06:59.555Z,60.20
2023-05-22T08:09:26.507Z,60.10
2023-05-22T08:11:53.505Z,60.00
2023-05-22T08:14:22.051Z,59.20
2023-05-22T08:16:49.399Z,59.90
2023-05-22T08:19:16.253Z,59.90
2023-05-22T08:21:43.124Z,60.00
2023-05-22T08:24:09.922Z,59.90
2023-05-22T08:26:36.908Z,59.80
2023-05-22T08:29:03.743Z,59.60
2023-05-22T08:31:31.838Z,59.50
2023-05-22T08:34:02.615Z,59.60
2023-05-22T08:36:31.598Z,59.70
2023-05-22T08:38:59.565Z,59.50
2023-05-22T08:41:27.255Z,59.50
2023-05-22T08:43:55.174Z,59.40
2023-05-22T08:46:26.461Z,59.30
2023-05-22T08:48:57.640Z,59.20
2023-05-22T08:51:28.624Z,59.00
2023-05-22T08:53:57.614Z,59.40
2023-05-22T08:56:27.603Z,58.60
2023-05-22T08:58:57.473Z,58.60
2023-05-22T09:01:24.789Z,58.50
2023-05-22T09:03:52.192Z,58.30
2023-05-22T09:06:19.542Z,58.00
2023-05-22T09:08:46.471Z,57.90
2023-05-22T09:11:13.344Z,57.90
2023-05-22T09:13:41.459Z,57.80
2023-05-22T09:16:13.428Z,57.70
2023-05-22T09:18:42.439Z,57.40
2023-05-22T09:21:28.948Z,57.40
2023-05-22T09:24:01.619Z,57.30
2023-05-22T09:26:29.432Z,57.00
2023-05-22T09:28:57.290Z,56.90
2023-05-22T09:31:24.330Z,56.90
2023-05-22T09:33:51.333Z,56.80
2023-05-22T09:36:18.308Z,56.70
2023-05-22T09:38:45.525Z,56.60
2023-05-22T09:41:12.332Z,56.30
2023-05-22T09:43:39.194Z,56.30
2023-05-22T09:46:06.078Z,56.00
2023-05-22T09:48:36.711Z,56.00
2023-05-22T09:51:05.134Z,55.60
2023-05-22T09:53:33.264Z,55.60
2023-05-22T09:56:01.703Z,55.50
2023-05-22T09:58:31.409Z,55.50
2023-05-22T10:00:59.272Z,55.10
2023-05-22T10:03:27.156Z,55.10
2023-05-22T10:05:58.848Z,55.00
2023-05-22T10:08:28.442Z,54.80
2023-05-22T10:10:55.900Z,54.60
2023-05-22T10:13:24.255Z,54.60
2023-05-22T10:15:51.792Z,54.60
2023-05-22T10:18:19.004Z,54.60
2023-05-22T10:20:49.013Z,54.50
2023-05-22T10:23:17.202Z,54.50
2023-05-22T10:25:45.707Z,54.30
2023-05-22T10:28:16.406Z,54.10
2023-05-22T10:30:51.233Z,54.00
2023-05-22T10:33:47.452Z,53.50
2023-05-22T10:36:28.520Z,55.10
2023-05-22T10:39:01.224Z,53.60
2023-05-22T10:41:28.205Z,53.40
2023-05-22T10:43:56.939Z,53.30
2023-05-22T10:46:24.087Z,53.10
2023-05-22T10:48:54.109Z,53.10
2023-05-22T10:51:24.644Z,52.80
2023-05-22T10:54:00.931Z,52.80
2023-05-22T10:56:35.408Z,52.70
2023-05-22T10:59:10.418Z,52.50
2023-05-22T11:01:38.774Z,52.40
2023-05-22T11:04:19.039Z,52.20
2023-05-22T11:07:05.366Z,52.10
2023-05-22T11:09:33.557Z,51.80
2023-05-22T11:12:19.362Z,52.30
2023-05-22T11:14:51.508Z,52.00
2023-05-22T11:17:22.511Z,52.10
2023-05-22T11:20:01.643Z,52.00
2023-05-22T11:22:37.165Z,51.40
2023-05-22T11:25:07.575Z,51.20
2023-05-22T11:27:35.334Z,51.60
2023-05-22T11:30:02.708Z,51.40
2023-05-22T11:32:30.010Z,51.20
2023-05-22T11:34:57.736Z,51.20
2023-05-22T11:37:24.865Z,51.20
2023-05-22T11:40:04.316Z,51.00
2023-05-22T11:42:31.371Z,50.50
2023-05-22T11:44:58.304Z,50.70
2023-05-22T11:47:27.503Z,50.30
2023-05-22T11:49:54.719Z,49.50
2023-05-22T11:52:21.550Z,50.20
2023-05-22T11:54:49.221Z,50.30
2023-05-22T11:57:16.032Z,50.30
2023-05-22T11:59:48.838Z,50.10
2023-05-22T12:02:19.476Z,49.30
2023-05-22T12:04:46.765Z,49.40
2023-05-22T12:07:14.141Z,49.60
2023-05-22T12:09:42.186Z,49.50
2023-05-22T12:12:12.069Z,49.20
2023-05-22T12:14:39.005Z,48.60
2023-05-22T12:17:06.468Z,49.20
2023-05-22T12:19:33.529Z,49.10
2023-05-22T12:22:01.040Z,48.90
2023-05-22T12:24:38.226Z,49.00
2023-05-22T12:27:09.236Z,48.50
2023-05-22T12:29:36.508Z,48.70
2023-05-22T12:32:05.233Z,48.70
2023-05-22T12:34:36.058Z,48.80
2023-05-22T12:37:03.139Z,48.40
2023-05-22T12:39:30.556Z,48.40
2023-05-22T12:41:57.424Z,49.00
2023-05-22T12:44:24.405Z,48.20
2023-05-22T12:46:52.547Z,48.20
2023-05-22T12:49:19.386Z,47.90
2023-05-22T12:51:46.236Z,48.00
2023-05-22T12:54:14.808Z,47.90
2023-05-22T12:56:41.619Z,47.90
2023-05-22T12:59:08.682Z,47.90
2023-05-22T13:01:35.649Z,47.70
2023-05-22T13:04:02.509Z,47.50
2023-05-22T13:06:30.579Z,47.50
2023-05-22T13:08:57.833Z,47.40
2023-05-22T13:11:26.578Z,47.20
2023-05-22T13:13:53.604Z,46.90
2023-05-22T13:16:20.697Z,46.80
2023-05-22T13:18:48.019Z,46.50
2023-05-22T13:21:15.081Z,46.50
2023-05-22T13:23:42.315Z,46.30
2023-05-22T13:26:09.307Z,46.10
2023-05-22T13:28:36.100Z,46.10
2023-05-22T13:31:02.894Z,46.40
2023-05-22T13:33:29.892Z,46.70
2023-05-22T13:35:56.752Z,46.90
2023-05-22T13:38:23.579Z,47.00
2023-05-22T13:40:50.836Z,46.80
2023-05-22T13:43:18.826Z,46.80
2023-05-22T13:45:45.750Z,46.50
2023-05-22T13:48:12.696Z,46.10
2023-05-22T13:50:39.516Z,46.00
2023-05-22T13:53:06.324Z,46.10
2023-05-22T13:55:33.117Z,45.90
2023-05-22T13:57:59.946Z,45.80
2023-05-22T14:00:26.833Z,46.00
2023-05-22T14:02:53.832Z,46.10
2023-05-22T14:05:21.088Z,46.20
2023-05-22T14:07:47.987Z,46.10
2023-05-22T14:10:15.049Z,46.00
2023-05-22T14:12:41.934Z,45.60
2023-05-22T14:15:09.139Z,45.50
2023-05-22T14:17:35.991Z,45.40
2023-05-22T14:20:03.921Z,45.40
2023-05-22T14:22:34.266Z,45.60
2023-05-22T14:25:06.006Z,45.30
2023-05-22T14:27:32.814Z,45.10
2023-05-22T14:29:59.680Z,44.80
2023-05-22T14:32:26.510Z,44.50
2023-05-22T14:34:54.528Z,44.40
2023-05-22T14:37:21.835Z,44.10
2023-05-22T14:39:48.619Z,43.80
2023-05-22T14:42:15.402Z,43.30
2023-05-22T14:44:42.182Z,43.50
2023-05-22T14:47:08.971Z,43.20
2023-05-22T14:49:35.778Z,43.30
2023-05-22T14:52:02.608Z,43.30
2023-05-22T14:54:29.485Z,43.10
2023-05-22T14:56:56.280Z,43.10
2023-05-22T14:59:23.121Z,43.00
2023-05-22T15:01:51.563Z,42.80
2023-05-22T15:04:18.801Z,42.70
2023-05-22T15:06:45.976Z,42.60
2023-05-22T15:09:12.863Z,42.40
2023-05-22T15:11:40.980Z,42.20
2023-05-22T15:14:07.845Z,42.10
2023-05-22T15:16:34.829Z,41.90
2023-05-22T15:19:01.715Z,41.80
2023-05-22T15:21:28.847Z,41.90
2023-05-22T15:23:55.641Z,41.60
2023-05-22T15:26:22.506Z,41.50
2023-05-22T15:28:49.438Z,41.30
2023-05-22T15:31:16.327Z,41.30
2023-05-22T15:33:43.169Z,41.20
2023-05-22T15:36:10.116Z,40.70
2023-05-22T15:38:36.936Z,40.70
2023-05-22T15:41:03.781Z,40.80
2023-05-22T15:43:30.838Z,40.70
2023-05-22T15:45:57.796Z,40.70
2023-05-22T15:48:24.678Z,40.80
2023-05-22T15:50:51.489Z,40.90
2023-05-22T15:53:18.353Z,40.80
2023-05-22T15:55:45.223Z,40.80
2023-05-22T15:58:12.006Z,40.70
2023-05-22T16:00:41.263Z,40.70
2023-05-22T16:03:08.878Z,41.00
2023-05-22T16:05:38.585Z,41.20
2023-05-22T16:08:12.437Z,41.10
2023-05-22T16:10:41.609Z,41.10
2023-05-22T16:13:10.599Z,41.20
2023-05-22T16:15:39.781Z,41.10
2023-05-22T16:18:07.975Z,41.30
2023-05-22T16:20:35.718Z,41.60
2023-05-22T16:23:02.604Z,41.70
2023-05-22T16:25:29.394Z,42.10
2023-05-22T16:27:56.209Z,42.40
2023-05-22T16:30:23.554Z,42.80
2023-05-22T16:32:50.505Z,43.20
2023-05-22T16:35:19.436Z,43.60
2023-05-22T16:37:46.265Z,43.90
2023-05-22T16:40:13.469Z,44.00
2023-05-22T16:42:40.464Z,44.00
2023-05-22T16:45:08.005Z,44.10
2023-05-22T16:47:34.839Z,44.00
2023-05-22T16:50:01.800Z,44.00
2023-05-22T16:52:29.311Z,44.00
2023-05-22T16:54:56.580Z,44.20
2023-05-22T16:57:27.457Z,44.40
2023-05-22T16:59:57.100Z,44.80
2023-05-22T17:02:24.765Z,44.80
2023-05-22T17:04:51.591Z,45.00
2023-05-22T17:07:18.421Z,44.20
2023-05-22T17:09:45.251Z,43.20
2023-05-22T17:12:12.163Z,43.00
2023-05-22T17:14:39.048Z,42.70
2023-05-22T17:17:06.411Z,42.60
2023-05-22T17:19:33.363Z,42.50
2023-05-22T17:22:00.316Z,42.60
2023-05-22T17:24:27.822Z,42.60
2023-05-22T17:26:54.729Z,42.90
2023-05-22T17:29:21.660Z,43.40
2023-05-22T17:31:48.526Z,43.70
2023-05-22T17:34:15.407Z,44.00
2023-05-22T17:36:44.726Z,44.00
2023-05-22T17:39:12.363Z,44.10
2023-05-22T17:41:39.242Z,44.20
2023-05-22T17:44:06.077Z,44.10
2023-05-22T17:46:33.109Z,44.20
2023-05-22T17:49:00.117Z,44.30
2023-05-22T17:51:27.090Z,44.50
2023-05-22T17:53:56.322Z,44.60
2023-05-22T17:56:23.544Z,44.80
2023-05-22T17:58:50.823Z,44.90
2023-05-22T18:01:18.161Z,45.00
2023-05-22T18:03:46.918Z,45.10
2023-05-22T18:06:14.007Z,45.20
2023-05-22T18:08:41.013Z,45.30
2023-05-22T18:11:07.866Z,46.70
2023-05-22T18:13:34.828Z,45.50
2023-05-22T18:16:03.489Z,45.60
2023-05-22T18:18:30.718Z,45.70
2023-05-22T18:20:58.991Z,45.80
2023-05-22T18:23:26.240Z,45.80
2023-05-22T18:25:53.488Z,45.30
2023-05-22T18:28:26.572Z,46.00
2023-05-22T18:30:54.315Z,46.00
2023-05-22T18:33:24.726Z,46.00
2023-05-22T18:35:51.717Z,46.30
2023-05-22T18:38:18.670Z,46.30
2023-05-22T18:40:47.186Z,46.30
2023-05-22T18:43:13.998Z,46.40
2023-05-22T18:45:41.055Z,46.50
2023-05-22T18:48:08.514Z,46.70
2023-05-22T18:50:35.533Z,46.80
2023-05-22T18:53:02.483Z,46.90
2023-05-22T18:55:29.465Z,47.00
2023-05-22T18:57:56.330Z,47.00
2023-05-22T19:00:23.394Z,47.10
2023-05-22T19:02:51.111Z,47.80
2023-05-22T19:05:18.039Z,47.20
2023-05-22T19:07:45.100Z,47.40
2023-05-22T19:10:11.996Z,47.40
2023-05-22T19:12:38.920Z,47.40
2023-05-22T19:15:06.937Z,47.50
2023-05-22T19:17:33.767Z,47.50
2023-05-22T19:20:01.090Z,47.70
2023-05-22T19:22:27.948Z,47.90
2023-05-22T19:24:54.746Z,48.10
2023-05-22T19:27:21.631Z,48.20
2023-05-22T19:29:49.049Z,48.30
2023-05-22T19:32:16.320Z,48.40
2023-05-22T19:34:43.322Z,48.60
2023-05-22T19:37:10.843Z,48.70
2023-05-22T19:39:38.317Z,48.90
2023-05-22T19:42:08.734Z,48.90
2023-05-22T19:44:36.311Z,49.10
2023-05-22T19:47:03.504Z,49.10
2023-05-22T19:49:31.665Z,49.20
2023-05-22T19:51:59.825Z,49.10
2023-05-22T19:54:26.660Z,49.80
2023-05-22T19:56:54.389Z,49.30
2023-05-22T19:59:21.201Z,49.30
2023-05-22T20:01:48.424Z,49.40
2023-05-22T20:04:15.697Z,49.40
2023-05-22T20:06:45.316Z,49.60
2023-05-22T20:09:12.312Z,49.60
2023-05-22T20:11:39.142Z,49.70
2023-05-22T20:14:05.942Z,49.70
2023-05-22T20:16:32.778Z,49.70
2023-05-22T20:18:59.771Z,49.80
2023-05-22T20:21:26.644Z,49.90
2023-05-22T20:23:53.452Z,50.00
2023-05-22T20:26:20.536Z,50.00
2023-05-22T20:28:47.497Z,50.00
2023-05-22T20:31:14.526Z,50.00
2023-05-22T20:33:41.509Z,50.10
2023-05-22T20:36:08.660Z,50.00
2023-05-22T20:38:35.514Z,50.10
2023-05-22T20:41:02.614Z,50.10
2023-05-22T20:43:32.346Z,50.10
2023-05-22T20:45:59.206Z,50.20
2023-05-22T20:48:26.126Z,50.30
2023-05-22T20:50:53.013Z,50.40
2023-05-22T20:53:19.827Z,50.50
2023-05-22T20:55:46.710Z,50.60
2023-05-22T20:58:14.792Z,50.60
2023-05-22T21:00:42.049Z,50.90
2023-05-22T21:03:09.116Z,50.90
2023-05-22T21:05:36.606Z,51.10
2023-05-22T21:08:03.738Z,51.30
2023-05-22T21:10:30.550Z,51.80
2023-05-22T21:12:57.521Z,52.20
2023-05-22T21:15:24.397Z,52.50
2023-05-22T21:17:51.227Z,52.70
2023-05-22T21:20:18.406Z,53.00
2023-05-22T21:22:45.638Z,53.10
2023-05-22T21:25:12.479Z,53.30
2023-05-22T21:27:39.309Z,53.60
2023-05-22T21:30:06.739Z,53.90
2023-05-22T21:32:33.639Z,54.00
2023-05-22T21:35:00.513Z,54.10
2023-05-22T21:37:27.369Z,54.20
2023-05-22T21:39:54.326Z,54.40
2023-05-22T21:42:21.694Z,54.50
2023-05-22T21:44:48.527Z,55.20
2023-05-22T21:47:15.362Z,54.60
2023-05-22T21:49:42.294Z,54.70
2023-05-22T21:52:09.215Z,54.80
2023-05-22T21:54:36.169Z,54.90
2023-05-22T21:57:03.056Z,55.00
2023-05-22T21:59:30.106Z,55.10
2023-05-22T22:01:57.176Z,55.20
2023-05-22T22:04:24.096Z,55.20
2023-05-22T22:06:50.940Z,55.40
2023-05-22T22:09:17.982Z,55.40
2023-05-22T22:11:45.695Z,55.50
2023-05-22T22:14:12.536Z,55.50
2023-05-22T22:16:40.600Z,55.60
2023-05-22T22:19:09.420Z,55.80
2023-05-22T22:21:55.260Z,55.80
2023-05-22T22:24:22.320Z,55.90
2023-05-22T22:26:49.392Z,55.90
2023-05-22T22:29:16.342Z,56.00
2023-05-22T22:31:43.252Z,56.10
2023-05-22T22:34:10.060Z,56.20
2023-05-22T22:36:36.896Z,56.30
2023-05-22T22:39:03.968Z,56.50
2023-05-22T22:41:30.784Z,56.60
2023-05-22T22:43:57.670Z,56.70
2023-05-22T22:46:24.598Z,56.80
2023-05-22T22:48:51.602Z,57.00
2023-05-22T22:51:19.158Z,57.10
2023-05-22T22:53:46.001Z,57.20
2023-05-22T22:56:13.022Z,57.20
2023-05-22T22:58:39.896Z,57.30
2023-05-22T23:01:06.734Z,57.30
2023-05-22T23:03:33.551Z,57.40
2023-05-22T23:06:01.539Z,57.40
2023-05-22T23:08:28.335Z,57.50
2023-05-22T23:10:55.103Z,57.50
2023-05-22T23:13:21.930Z,57.60
2023-05-22T23:15:48.792Z,57.60
2023-05-22T23:18:15.659Z,57.60
2023-05-22T23:20:42.550Z,57.80
2023-05-22T23:23:09.332Z,57.90
2023-05-22T23:25:36.138Z,57.90
2023-05-22T23:28:02.945Z,58.00
2023-05-22T23:30:30.056Z,58.10
2023-05-22T23:32:56.900Z,58.20
2023-05-22T23:35:24.025Z,56.80
2023-05-22T23:37:51.067Z,58.30
2023-05-22T23:40:17.905Z,58.30
2023-05-22T23:42:44.735Z,58.40
2023-05-22T23:45:11.632Z,58.40
2023-05-22T23:47:38.516Z,58.50
2023-05-22T23:50:06.061Z,57.90
2023-05-22T23:52:32.873Z,58.60
2023-05-22T23:54:59.764Z,58.60
2023-05-22T23:57:26.560Z,58.70
2023-05-22T23:59:53.351Z,58.70
